21:42
Airports
History
Links
Donate
Help keep this website running!
PayPal
Bitcoin
This page is community maintained. The information is intended for PC simulator navigation or reference.
Always use approved charts for navigation.
YWCH
WALCHA
WALCHA (YWCH)
Walcha, New South Wales, Australia (2354)
4
Lat/Lng:31° 0' 28.62" S / 151° 32' 56.26" E
-31.00795 / 151.548961
Elevation:3788'ft / 1155mMSL
ID / ICAO:YWCH
Runways:2
Longest:(6-24) 1,593.2m / 5,227ft
Distance To
Airport ID:
Nearby WeatherUpdated 08-16-17 21:30 GMT
Nearby weather at YSTW, Tamworth located 42.1 nautical miles from YWCH
Altimeter: 29.91
Visibility: 6.2 statute miles
Wind: 0 knots (000°)
Temp: 7°c 45°f
Humidity: 87.1%

METAR: YSTW 162130Z AUTO 00000KT 9999 // NCD 07/05 Q1013 RF00.0/000.0

(Powered by phpweather)
Runway 14 / 32
Dimensions:869 x 43.9m 2851' x 144'ft
Surface:Grass
Runway 14 [A]Runway 32 [B]
Heading:141°TH 321°TH
Lat:
Lng:
31° 0' 10.63"S
151° 33' 7.14"E
31° 0' 32.62"S
151° 33' 27.52"E
Runway 6 / 24
Dimensions:1593.2 x 88.1m 5227' x 289'ft
Surface:
Runway 6 [A]Runway 24 [B]
Heading:066°TH 246°TH
Lat:
Lng:
31° 0' 46.61"S
151° 32' 25"E
31° 0' 25.75"S
151° 33' 20.17"E
User Notes and Comments
Google Map
Nearby Airports
(C) Armidale 33.4 NM
YARM N
(C) Tamworth 42.1 NM
YSTW (WX) W 263°
4 GOONOO GOONOO HS 43.1 NM
YGGO WSW 240°
4 WAKEFIELD 44.7 NM
YWAF W 277°
4 SUNDOWN VALLEY 50.7 NM
YSUN NW 318°
4 MANILLA 51.6 NM
YMAL WNW 288°
4 ELLERSTON 58.4 NM
YESN SSW 194°
VFR Chart
Flight Planning at SkyVector.com